Country
Station

 

Weather  for  Sanford Municipal Automatic Weather Observing/Reporting System  -  United States    United States

  
19 °C (66 °F)
    
 
 

Current METAR for Sanford Municipal Automatic Weather Observing/Reporting System is :

KSFM 171056Z AUTO 00000KT 3/4SM BR OVC003 19/19 A2985 RMK AO2 SLP111 T01940189 RVRNO

 

This is a report for Sanford Municipal Automatic Weather Observing/Reporting System - United States.
 
The report was made a moment ago, at 10:56 UTC .
The wind was calm.
 
The temperature was 19 °C (66 °F), with a dew-point at 19 °C (66 °F).
The atmospheric pressure was 1011 hPa (29.85 inHg).
The relative humidity was 100.0%.
 
The sky was overcast from a height of 91 meter (300 feet)
 
The overall visibility was 1207 meter (3960 feet).
 
Currently mist.

 
 
 
 

Country :   A   B   C   D   E   F   G   H   I   J   K   L   M   N   O   P   Q   R   S   T   U   V   W   Y   Z

 

Site Info  |  Disclaimer  |  Credits  |  Privacy
Contact us  |  Add to favorites
© 2013-2018 METARs - All rights reserved